^^
Station Historical Data
Daily Summary for Nil La, TWC- Units:  English    Metric   Both
« Previous Day
Next Day »
Daily Weekly Monthly Yearly Custom
  High: Low: Average:
Temperature: TemperatureF °F 65.7 °F 73.4 °F
Dew Point: DewpointF °F 38.1 °F 49.6 °F
Humidity: Humidity% 22% 46%
Wind Speed: WindSpeedMPHmph 0.0mph 1.9mph
Wind Gust: WindSpeedGustMPHmph - -
Wind- - SE
Pressure: PressureIn in 29.55 in -
Precipitation: 0.00 in    
Historical Graphs
 
 
Tabular Data for Nil La, TWC-
Time Temperature Dew Point Pressure Wind Wind Speed Wind Gust Humidity Rainfall Rate (Hourly) solar Conditions
TemperatureF °F DewpointF °F PressureIn in Calm     Humidity% HourlyPrecipIn in SolarRadiationWatts/m^2 W/m2 Conditions
00:04 77.4 °F 40.8 °F 29.59 in Calm   4.0 mph 27% 0.00 in 0.0 W/m2
00:09 77.4 °F 40.8 °F 29.59 in Calm   4.0 mph 27% 0.00 in 0.0 W/m2
00:14 77.4 °F 40.8 °F 29.59 in SE 2.9 mph 5.0 mph 27% 0.00 in 0.0 W/m2
00:20 77.4 °F 40.8 °F 29.58 in Calm   4.0 mph 27% 0.00 in 0.0 W/m2
00:25 77.2 °F 40.6 °F 29.59 in SE 0.9 mph 4.0 mph 27% 0.00 in 0.0 W/m2
00:30 76.8 °F 40.3 °F 29.59 in SE 4.0 mph 6.0 mph 27% 0.00 in 0.0 W/m2
00:35 76.6 °F 38.1 °F 29.59 in SE 2.9 mph 6.0 mph 25% 0.00 in 0.0 W/m2
00:40 76.8 °F 38.3 °F 29.59 in SE 2.0 mph 4.0 mph 25% 0.00 in 0.0 W/m2
00:45 76.8 °F 38.3 °F 29.59 in ESE 2.9 mph 8.0 mph 25% 0.00 in 0.0 W/m2
00:50 76.8 °F 38.3 °F 29.59 in SE 0.9 mph 2.0 mph 25% 0.00 in 0.0 W/m2
00:55 76.8 °F 39.4 °F 29.59 in ESE 2.0 mph 4.0 mph 26% 0.00 in 0.0 W/m2
01:00 76.6 °F 39.2 °F 29.59 in SE 0.9 mph 5.0 mph 26% 0.00 in 0.0 W/m2
01:05 76.6 °F 40.1 °F 29.59 in Calm   4.0 mph 27% 0.00 in 0.0 W/m2
01:10 76.5 °F 41.9 °F 29.59 in SE 0.9 mph 3.0 mph 29% 0.00 in 0.0 W/m2
01:16 76.5 °F 43.5 °F 29.58 in East 4.0 mph 5.0 mph 31% 0.00 in 0.0 W/m2
01:21 76.5 °F 44.4 °F 29.58 in ESE 8.1 mph 9.0 mph 32% 0.00 in 0.0 W/m2
01:26 76.5 °F 45.1 °F 29.58 in ESE 6.9 mph 14.0 mph 33% 0.00 in 0.0 W/m2
01:29 76.5 °F 45.1 °F 29.58 in ENE 2.0 mph 11.0 mph 33% 0.00 in 0.0 W/m2
01:34 76.5 °F 45.1 °F 29.57 in ESE 4.0 mph 10.0 mph 33% 0.00 in 0.0 W/m2
01:39 76.3 °F 45.1 °F 29.57 in ESE 6.0 mph 8.0 mph 33% 0.00 in 0.0 W/m2
01:44 76.3 °F 45.1 °F 29.57 in SE 4.0 mph 11.0 mph 33% 0.00 in 0.0 W/m2
01:49 75.9 °F 45.5 °F 29.57 in East 0.9 mph 6.0 mph 34% 0.00 in 0.0 W/m2
01:54 75.9 °F 45.5 °F 29.57 in ESE 2.0 mph 6.0 mph 34% 0.00 in 0.0 W/m2
02:00 75.6 °F 45.1 °F 29.57 in NNW 2.0 mph 7.0 mph 34% 0.00 in 0.0 W/m2
02:05 75.6 °F 46.0 °F 29.56 in Calm   3.0 mph 35% 0.00 in 0.0 W/m2
02:10 75.2 °F 45.7 °F 29.56 in Calm   5.0 mph 35% 0.00 in 0.0 W/m2
02:15 74.8 °F 46.0 °F 29.56 in ESE 4.0 mph 8.0 mph 36% 0.00 in 0.0 W/m2
02:20 74.7 °F 45.9 °F 29.56 in ENE 0.9 mph 5.0 mph 36% 0.00 in 0.0 W/m2
02:25 74.5 °F 45.9 °F 29.56 in East 2.9 mph 5.0 mph 36% 0.00 in 0.0 W/m2
02:30 74.1 °F 46.2 °F 29.56 in East 2.0 mph 4.0 mph 37% 0.00 in 0.0 W/m2
02:35 73.8 °F 45.9 °F 29.55 in NNE 2.9 mph 6.0 mph 37% 0.00 in 0.0 W/m2
02:40 73.6 °F 46.4 °F 29.55 in ESE 0.9 mph 8.0 mph 38% 0.00 in 0.0 W/m2
02:45 73.2 °F 46.8 °F 29.55 in NNW 6.9 mph 7.0 mph 39% 0.00 in 0.0 W/m2
02:51 73.2 °F 47.5 °F 29.55 in NNW 6.9 mph 7.0 mph 40% 0.00 in 0.0 W/m2
02:56 73.0 °F 48.0 °F 29.55 in ESE 4.0 mph 12.0 mph 41% 0.00 in 0.0 W/m2
03:01 73.0 °F 48.0 °F 29.55 in ENE 2.0 mph 8.0 mph 41% 0.00 in 0.0 W/m2
03:06 72.9 °F 48.4 °F 29.55 in SE 4.9 mph 7.0 mph 42% 0.00 in 0.0 W/m2
03:11 72.7 °F 48.2 °F 29.55 in ENE 2.9 mph 8.0 mph 42% 0.00 in 0.0 W/m2
03:16 72.5 °F 48.7 °F 29.55 in NE 4.0 mph 6.0 mph 43% 0.00 in 0.0 W/m2
03:21 72.3 °F 49.1 °F 29.55 in NE 4.0 mph 6.0 mph 44% 0.00 in 0.0 W/m2
03:26 72.1 °F 49.1 °F 29.55 in ENE 4.0 mph 7.0 mph 44% 0.00 in 0.0 W/m2
03:32 72.0 °F 48.9 °F 29.55 in Calm   1.0 mph 44% 0.00 in 0.0 W/m2
03:37 71.8 °F 49.3 °F 29.55 in NE 4.9 mph 5.0 mph 45% 0.00 in 0.0 W/m2
03:42 71.4 °F 48.9 °F 29.56 in Calm   2.0 mph 45% 0.00 in 0.0 W/m2
03:47 71.4 °F 48.9 °F 29.56 in WNW 0.9 mph 2.0 mph 45% 0.00 in 0.0 W/m2
03:52 71.1 °F 49.3 °F 29.56 in Calm   2.0 mph 46% 0.00 in 0.0 W/m2
03:57 70.9 °F 49.1 °F 29.56 in Calm   1.0 mph 46% 0.00 in 0.0 W/m2
04:02 70.5 °F 49.3 °F 29.56 in Calm   1.0 mph 47% 0.00 in 0.0 W/m2
04:07 70.3 °F 49.1 °F 29.56 in Calm   5.0 mph 47% 0.00 in 0.0 W/m2
04:13 70.2 °F 49.6 °F 29.56 in Calm   2.0 mph 48% 0.00 in 0.0 W/m2
04:19 69.8 °F 49.3 °F 29.56 in Calm     48% 0.00 in 0.0 W/m2
04:24 69.6 °F 49.6 °F 29.56 in NNW 2.0 mph 2.0 mph 49% 0.00 in 0.0 W/m2
04:29 69.3 °F 49.8 °F 29.56 in Calm   3.0 mph 50% 0.00 in 0.0 W/m2
04:34 69.1 °F 49.6 °F 29.57 in Calm   1.0 mph 50% 0.00 in 0.0 W/m2
04:39 68.9 °F 50.0 °F 29.57 in Calm     51% 0.00 in 0.0 W/m2
04:44 68.7 °F 49.8 °F 29.57 in Calm     51% 0.00 in 0.0 W/m2
04:49 68.5 °F 50.2 °F 29.57 in Calm   1.0 mph 52% 0.00 in 0.0 W/m2
04:55 68.4 °F 50.0 °F 29.58 in Calm     52% 0.00 in 0.0 W/m2
05:01 68.2 °F 50.4 °F 29.58 in Calm     53% 0.00 in 0.0 W/m2
05:06 67.8 °F 50.5 °F 29.58 in Calm   1.0 mph 54% 0.00 in 0.0 W/m2
05:11 67.6 °F 50.4 °F 29.58 in ESE 0.9 mph 1.0 mph 54% 0.00 in 0.0 W/m2
05:16 67.6 °F 50.9 °F 29.58 in Calm   1.0 mph 55% 0.00 in 0.0 W/m2
05:22 67.6 °F 50.9 °F 29.58 in NNW 0.9 mph 2.0 mph 55% 0.00 in 0.0 W/m2
05:27 67.6 °F 51.8 °F 29.59 in Calm   3.0 mph 57% 0.00 in 0.0 W/m2
05:32 67.6 °F 52.3 °F 29.59 in NE 2.9 mph 7.0 mph 58% 0.00 in 0.0 W/m2
05:37 67.6 °F 52.9 °F 29.59 in ENE 6.0 mph 8.0 mph 59% 0.00 in 0.0 W/m2
05:42 67.6 °F 53.2 °F 29.59 in North 4.0 mph 8.0 mph 60% 0.00 in 0.0 W/m2
05:47 67.8 °F 54.0 °F 29.59 in ENE 6.0 mph 8.0 mph 61% 0.00 in 0.0 W/m2
05:52 67.8 °F 54.3 °F 29.59 in Calm   7.0 mph 62% 0.00 in 0.0 W/m2
05:57 67.6 °F 54.7 °F 29.59 in ENE 0.9 mph 5.0 mph 63% 0.00 in 0.0 W/m2
06:02 67.6 °F 54.7 °F 29.59 in Calm   5.0 mph 63% 0.00 in 0.0 W/m2
06:08 67.5 °F 54.9 °F 29.59 in NNE 2.0 mph 4.0 mph 64% 0.00 in 0.0 W/m2
06:13 67.3 °F 54.7 °F 29.59 in Calm   3.0 mph 64% 0.00 in 0.0 W/m2
06:18 67.3 °F 55.0 °F 29.59 in Calm   2.0 mph 65% 0.00 in 0.0 W/m2
06:23 67.1 °F 55.4 °F 29.59 in ENE 4.0 mph 4.0 mph 66% 0.00 in 0.0 W/m2
06:28 66.9 °F 55.6 °F 29.59 in ENE 2.9 mph 7.0 mph 67% 0.00 in 0.0 W/m2
06:33 66.7 °F 55.4 °F 29.59 in NE 2.0 mph 6.0 mph 67% 0.00 in 0.0 W/m2
06:38 66.7 °F 55.4 °F 29.58 in ESE 0.9 mph 4.0 mph 67% 0.00 in 0.0 W/m2
06:43 66.6 °F 55.2 °F 29.58 in ESE 0.9 mph 3.0 mph 67% 0.00 in 0.0 W/m2
06:48 66.6 °F 55.6 °F 29.58 in East 2.0 mph 2.0 mph 68% 0.00 in 0.0 W/m2
06:54 66.4 °F 55.6 °F 29.58 in ESE 2.0 mph 4.0 mph 68% 0.00 in 7.0 W/m2
06:59 66.0 °F 55.6 °F 29.58 in Calm   1.0 mph 69% 0.00 in 11.0 W/m2
07:04 66.0 °F 55.6 °F 29.58 in ESE 0.9 mph 2.0 mph 69% 0.00 in 12.0 W/m2
07:09 65.8 °F 55.4 °F 29.58 in Calm   1.0 mph 69% 0.00 in 14.0 W/m2
07:14 65.8 °F 55.4 °F 29.58 in Calm   1.0 mph 69% 0.00 in 18.0 W/m2
07:19 65.7 °F 55.2 °F 29.58 in Calm   1.0 mph 69% 0.00 in 19.0 W/m2
07:24 65.7 °F 55.2 °F 29.58 in Calm   1.0 mph 69% 0.00 in 21.0 W/m2
07:29 65.7 °F 55.6 °F 29.59 in Calm     70% 0.00 in 23.0 W/m2
07:34 65.7 °F 55.6 °F 29.59 in Calm   1.0 mph 70% 0.00 in 23.0 W/m2
07:39 65.7 °F 55.6 °F 29.59 in ESE 2.0 mph 2.0 mph 70% 0.00 in 25.0 W/m2
07:44 65.7 °F 55.2 °F 29.59 in Calm   2.0 mph 69% 0.00 in 26.0 W/m2
07:49 65.8 °F 55.4 °F 29.59 in ESE 0.9 mph 2.0 mph 69% 0.00 in 28.0 W/m2
07:54 66.0 °F 55.6 °F 29.58 in Calm   1.0 mph 69% 0.00 in 28.0 W/m2
08:00 66.2 °F 55.8 °F 29.58 in Calm   2.0 mph 69% 0.00 in 33.0 W/m2
08:05 66.6 °F 55.2 °F 29.58 in Calm     67% 0.00 in 32.0 W/m2
08:10 66.7 °F 55.4 °F 29.58 in Calm   1.0 mph 67% 0.00 in 33.0 W/m2
08:15 66.9 °F 55.2 °F 29.58 in ESE 0.9 mph 2.0 mph 66% 0.00 in 33.0 W/m2
08:20 67.5 °F 55.2 °F 29.58 in Calm   1.0 mph 65% 0.00 in 33.0 W/m2
08:25 67.6 °F 55.4 °F 29.58 in Calm   2.0 mph 65% 0.00 in 35.0 W/m2
08:30 67.8 °F 55.2 °F 29.58 in Calm   1.0 mph 64% 0.00 in 37.0 W/m2
08:35 68.2 °F 55.0 °F 29.58 in Calm   3.0 mph 63% 0.00 in 37.0 W/m2
08:41 68.7 °F 55.6 °F 29.58 in Calm   1.0 mph 63% 0.00 in 39.0 W/m2
08:46 69.1 °F 55.6 °F 29.58 in Calm   1.0 mph 62% 0.00 in 42.0 W/m2
08:51 69.6 °F 55.6 °F 29.58 in Calm   3.0 mph 61% 0.00 in 47.0 W/m2
08:56 70.0 °F 55.4 °F 29.58 in Calm   1.0 mph 60% 0.00 in 90.0 W/m2
09:01 70.3 °F 55.4 °F 29.58 in Calm   1.0 mph 59% 0.00 in 503.0 W/m2
09:06 70.7 °F 55.6 °F 29.58 in Calm     59% 0.00 in 522.0 W/m2
09:11 71.4 °F 55.9 °F 29.58 in Calm   2.0 mph 58% 0.00 in 538.0 W/m2
09:16 72.3 °F 55.8 °F 29.58 in Calm   2.0 mph 56% 0.00 in 559.0 W/m2
09:22 73.6 °F 56.5 °F 29.58 in ENE 2.0 mph 2.0 mph 55% 0.00 in 578.0 W/m2
09:27 73.9 °F 55.2 °F 29.58 in SSW 0.9 mph 5.0 mph 52% 0.00 in 598.0 W/m2
09:32 74.5 °F 56.3 °F 29.58 in Calm   3.0 mph 53% 0.00 in 613.0 W/m2
09:37 75.0 °F 55.6 °F 29.58 in Calm   1.0 mph 51% 0.00 in 633.0 W/m2
09:42 75.6 °F 55.0 °F 29.59 in Calm   3.0 mph 49% 0.00 in 650.0 W/m2
09:47 76.3 °F 55.8 °F 29.59 in Calm   2.0 mph 49% 0.00 in 666.0 W/m2
09:52 76.8 °F 55.6 °F 29.59 in SSW 2.9 mph 5.0 mph 48% 0.00 in 686.0 W/m2
09:57 77.4 °F 55.6 °F 29.58 in SSW 2.0 mph 5.0 mph 47% 0.00 in 700.0 W/m2
10:03 77.9 °F 54.9 °F 29.58 in Calm   2.0 mph 45% 0.00 in 717.0 W/m2
10:08 78.4 °F 55.4 °F 29.58 in WSW 2.0 mph 5.0 mph 45% 0.00 in 728.0 W/m2
10:13 78.6 °F 54.9 °F 29.58 in West 2.0 mph 2.0 mph 44% 0.00 in 747.0 W/m2
10:18 79.0 °F 54.5 °F 29.59 in SSE 0.9 mph 1.0 mph 43% 0.00 in 761.0 W/m2
10:24 79.9 °F 54.7 °F 29.58 in Calm   3.0 mph 42% 0.00 in 788.0 W/m2
10:29 80.8 °F 54.9 °F 29.59 in SW 2.0 mph 4.0 mph 41% 0.00 in 800.0 W/m2
10:34 81.7 °F 52.9 °F 29.58 in SE 2.0 mph 5.0 mph 37% 0.00 in 821.0 W/m2
10:39 82.6 °F 48.0 °F 29.58 in SE 4.9 mph 11.0 mph 30% 0.00 in 824.0 W/m2
10:44 83.1 °F 48.6 °F 29.59 in East 4.0 mph 7.0 mph 30% 0.00 in 838.0 W/m2
10:49 83.8 °F 47.3 °F 29.58 in NE 2.0 mph 7.0 mph 28% 0.00 in 853.0 W/m2
10:53 84.6 °F 47.8 °F 29.58 in South 0.9 mph 4.0 mph 28% 0.00 in 872.0 W/m2
10:57 85.3 °F 47.5 °F 29.58 in East 8.1 mph 9.0 mph 27% 0.00 in 872.0 W/m2
11:02 85.5 °F 46.6 °F 29.58 in ESE 4.0 mph 14.0 mph 26% 0.00 in 886.0 W/m2
11:08 85.5 °F 46.6 °F 29.58 in SE 8.1 mph 14.0 mph 26% 0.00 in 900.0 W/m2
11:13 85.5 °F 46.6 °F 29.59 in SE 8.9 mph 10.0 mph 26% 0.00 in 919.0 W/m2
11:18 85.6 °F 46.8 °F 29.59 in NE 6.9 mph 12.0 mph 26% 0.00 in 926.0 W/m2
11:24 85.8 °F 45.9 °F 29.59 in North 2.0 mph 11.0 mph 25% 0.00 in 947.0 W/m2
11:29 86.2 °F 46.2 °F 29.58 in Calm   11.0 mph 25% 0.00 in 942.0 W/m2
11:34 86.5 °F 46.6 °F 29.58 in SE 4.9 mph 11.0 mph 25% 0.00 in 958.0 W/m2
11:39 87.1 °F 46.9 °F 29.59 in NE 8.1 mph 11.0 mph 25% 0.00 in 967.0 W/m2
11:44 87.4 °F 46.2 °F 29.58 in East 0.9 mph 11.0 mph 24% 0.00 in 972.0 W/m2
11:49 88.0 °F 46.6 °F 29.57 in NNE 4.0 mph 13.0 mph 24% 0.00 in 1018.0 W/m2
11:54 88.3 °F 45.9 °F 29.58 in NE 4.9 mph 14.0 mph 23% 0.00 in 1013.0 W/m2
12:00 88.3 °F 45.9 °F 29.57 in NE 8.1 mph 10.0 mph 23% 0.00 in 993.0 W/m2
12:05 88.2 °F 46.8 °F 29.57 in NE 4.9 mph 7.0 mph 24% 0.00 in 1034.0 W/m2
12:10 88.5 °F 47.1 °F 29.57 in ESE 4.0 mph 8.0 mph 24% 0.00 in 1065.0 W/m2
12:15 88.9 °F 45.1 °F 29.57 in SE 2.9 mph 5.0 mph 22% 0.00 in 1071.0 W/m2
12:20 88.9 °F 46.2 °F 29.57 in SSW 4.9 mph 7.0 mph 23% 0.00 in 1111.0 W/m2
12:25 88.9 °F 46.2 °F 29.57 in ESE 6.9 mph 11.0 mph 23% 0.00 in 1102.0 W/m2
Olympia, Windhoek, Namibia
Compliments of Weather Underground - 2.5 mb